Terminal Aerodrome Forecast
Issued by NWS Sterling, VA

Home | Current Version | Previous Version | Text Only | Print | Product List | Glossary On
Versions: 1 2 3 4 5 6 7 8 9 10 11 12 13 14 15 16 17 18 19 20 21 22 23 24 25 26 27
000
FTUS41 KLWX 312341
TAFIAD
TAF
KIAD 312341Z 0100/0206 01005KT P6SM SCT060 BKN250
     FM010130 17005KT P6SM SCT250
     FM010900 00000KT 3SM BR SCT080
     FM011300 03004KT P6SM FEW050 SCT250
     FM011500 08005KT P6SM SCT050
     FM011700 11006KT P6SM BKN050
     FM012300 13007KT P6SM SCT050=

USA.gov is the U.S. government's official web portal to all federal, state and local government web resources and services.